createdAt,value
2022-10-17T00:00:05.888Z,96.03
2022-10-17T00:02:33.264Z,97.88
2022-10-17T00:05:00.645Z,99.65
2022-10-17T00:07:28.179Z,90.47
2022-10-17T00:09:55.973Z,95.15
2022-10-17T00:12:23.371Z,82.22
2022-10-17T00:14:50.798Z,88.22
2022-10-17T00:17:18.304Z,77.80
2022-10-17T00:19:45.863Z,74.20
2022-10-17T00:22:13.511Z,73.32
2022-10-17T00:24:41.094Z,77.25
2022-10-17T00:27:08.557Z,71.55
2022-10-17T00:29:36.156Z,75.22
2022-10-17T00:32:03.819Z,77.90
2022-10-17T00:34:31.297Z,84.05
2022-10-17T00:36:58.978Z,81.45
2022-10-17T00:39:26.441Z,82.60
2022-10-17T00:41:53.919Z,74.10
2022-10-17T00:44:30.631Z,82.35
2022-10-17T00:46:59.245Z,80.53
2022-10-17T00:49:30.259Z,85.15
2022-10-17T00:52:02.463Z,79.93
2022-10-17T00:54:34.588Z,98.68
2022-10-17T00:59:32.670Z,83.95
2022-10-17T01:02:08.513Z,78.55
2022-10-17T01:04:41.252Z,87.63
2022-10-17T01:07:09.164Z,89.88
2022-10-17T01:09:38.112Z,78.85
2022-10-17T01:12:22.295Z,87.85
2022-10-17T01:15:23.935Z,96.28
2022-10-17T01:18:16.068Z,99.25
2022-10-17T01:21:09.531Z,88.60
2022-10-17T01:24:03.170Z,81.50
2022-10-17T01:27:01.387Z,79.15
2022-10-17T01:29:46.541Z,75.05
2022-10-17T01:32:23.983Z,76.40
2022-10-17T01:35:28.325Z,80.43
2022-10-17T01:38:18.546Z,79.75
2022-10-17T01:40:52.603Z,82.60
2022-10-17T01:43:25.498Z,81.85
2022-10-17T01:46:00.663Z,77.57
2022-10-17T01:48:35.098Z,101.45
2022-10-17T01:51:25.636Z,87.82
2022-10-17T01:54:02.952Z,91.43
2022-10-17T01:56:32.875Z,100.47
2022-10-17T01:59:11.411Z,109.38
2022-10-17T02:01:41.874Z,101.50
2022-10-17T02:04:10.965Z,96.05
2022-10-17T02:06:38.462Z,94.18
2022-10-17T02:09:26.389Z,93.13
2022-10-17T02:12:13.820Z,95.30
2022-10-17T02:14:50.946Z,98.43
2022-10-17T02:17:33.207Z,95.88
2022-10-17T02:20:22.988Z,96.28
2022-10-17T02:23:22.691Z,94.97
2022-10-17T02:26:21.727Z,94.85
2022-10-17T02:29:13.982Z,99.13
2022-10-17T02:32:11.737Z,99.97
2022-10-17T02:34:42.914Z,102.50
2022-10-17T02:37:13.645Z,103.85
2022-10-17T02:39:42.990Z,96.30
2022-10-17T02:42:13.944Z,91.50
2022-10-17T02:44:45.126Z,98.78
2022-10-17T02:47:25.315Z,97.28
2022-10-17T02:49:55.383Z,104.53
2022-10-17T02:52:39.772Z,82.57
2022-10-17T02:55:20.190Z,76.03
2022-10-17T02:58:00.181Z,81.72
2022-10-17T03:00:28.852Z,96.05
2022-10-17T03:02:57.254Z,105.00
2022-10-17T03:05:29.905Z,109.57
2022-10-17T03:07:57.471Z,111.20
2022-10-17T03:10:25.651Z,98.60
2022-10-17T03:12:53.280Z,94.88
2022-10-17T03:15:21.411Z,102.55
2022-10-17T03:17:49.042Z,99.22
2022-10-17T03:20:17.615Z,96.10
2022-10-17T03:22:45.986Z,105.03
2022-10-17T03:25:13.578Z,95.57
2022-10-17T03:27:41.008Z,78.50
2022-10-17T03:30:09.977Z,75.30
2022-10-17T03:32:37.562Z,78.65
2022-10-17T03:35:05.242Z,78.25
2022-10-17T03:37:32.873Z,78.60
2022-10-17T03:40:00.426Z,75.97
2022-10-17T03:42:27.832Z,89.50
2022-10-17T03:44:55.261Z,96.65
2022-10-17T03:47:23.297Z,101.05
2022-10-17T03:49:53.538Z,106.10
2022-10-17T03:52:21.686Z,111.93
2022-10-17T03:54:50.827Z,106.95
2022-10-17T03:57:19.800Z,92.13
2022-10-17T03:59:47.794Z,96.68
2022-10-17T04:02:18.581Z,96.30
2022-10-17T04:04:46.468Z,92.60
2022-10-17T04:07:14.087Z,99.85
2022-10-17T04:09:44.485Z,109.40
2022-10-17T04:12:15.027Z,94.93
2022-10-17T04:14:43.086Z,100.97
2022-10-17T04:17:10.821Z,104.63
2022-10-17T04:19:39.572Z,95.90
2022-10-17T04:22:08.498Z,95.20
2022-10-17T04:24:38.182Z,96.47
2022-10-17T04:27:09.093Z,94.85
2022-10-17T04:29:40.644Z,98.15
2022-10-17T04:32:18.226Z,87.05
2022-10-17T04:34:52.479Z,96.57
2022-10-17T04:37:22.517Z,95.28
2022-10-17T04:39:51.933Z,95.10
2022-10-17T04:42:19.450Z,105.93
2022-10-17T04:44:47.267Z,97.25
2022-10-17T04:47:17.282Z,93.10
2022-10-17T04:49:45.149Z,99.57
2022-10-17T04:52:14.501Z,101.43
2022-10-17T04:54:46.256Z,99.10
2022-10-17T04:57:15.120Z,110.70
2022-10-17T04:59:49.392Z,104.13
2022-10-17T05:02:26.928Z,111.20
2022-10-17T05:04:54.543Z,109.55
2022-10-17T05:07:22.324Z,102.65
2022-10-17T05:10:16.002Z,101.43
2022-10-17T05:12:50.719Z,91.75
2022-10-17T05:15:19.824Z,103.43
2022-10-17T05:17:47.474Z,102.07
2022-10-17T05:20:15.026Z,87.63
2022-10-17T05:22:42.652Z,84.65
2022-10-17T05:25:11.960Z,72.72
2022-10-17T05:27:39.547Z,75.03
2022-10-17T05:30:08.037Z,79.35
2022-10-17T05:32:37.051Z,76.10
2022-10-17T05:35:05.423Z,81.35
2022-10-17T05:37:33.602Z,79.90
2022-10-17T05:40:03.244Z,85.78
2022-10-17T05:42:31.688Z,86.93
2022-10-17T05:44:59.550Z,76.78
2022-10-17T05:47:27.621Z,92.43
2022-10-17T05:49:55.422Z,95.45
2022-10-17T05:52:29.816Z,88.10
2022-10-17T05:55:08.159Z,84.97
2022-10-17T05:57:35.737Z,80.35
2022-10-17T06:00:06.736Z,101.60
2022-10-17T06:02:46.081Z,96.32
2022-10-17T06:05:16.192Z,97.20
2022-10-17T06:07:44.497Z,110.28
2022-10-17T06:10:16.244Z,130.60
2022-10-17T06:12:44.166Z,122.60
2022-10-17T06:15:14.511Z,112.53
2022-10-17T06:17:48.033Z,98.90
2022-10-17T06:20:17.056Z,102.25
2022-10-17T06:22:44.916Z,97.65
2022-10-17T06:25:18.763Z,100.10
2022-10-17T06:27:46.395Z,108.22
2022-10-17T06:30:14.122Z,100.32
2022-10-17T06:32:42.113Z,100.90
2022-10-17T06:35:09.597Z,108.80
2022-10-17T06:37:38.004Z,113.70
2022-10-17T06:40:10.500Z,102.53
2022-10-17T06:42:39.377Z,114.40
2022-10-17T06:45:27.073Z,113.95
2022-10-17T06:48:14.789Z,105.90
2022-10-17T06:50:44.239Z,106.60
2022-10-17T06:53:22.127Z,102.15
2022-10-17T06:55:55.334Z,103.20
2022-10-17T06:58:41.138Z,101.60
2022-10-17T07:01:16.260Z,101.05
2022-10-17T07:03:48.754Z,98.93
2022-10-17T07:06:16.425Z,96.38
2022-10-17T07:08:45.305Z,105.00
2022-10-17T07:11:20.862Z,104.23
2022-10-17T07:13:50.695Z,104.07
2022-10-17T07:16:18.365Z,109.05
2022-10-17T07:18:51.372Z,101.75
2022-10-17T07:21:19.931Z,96.32
2022-10-17T07:23:47.418Z,100.13
2022-10-17T07:26:17.530Z,93.93
2022-10-17T07:28:46.781Z,105.90
2022-10-17T07:31:45.618Z,94.22
2022-10-17T07:34:13.295Z,90.82
2022-10-17T07:36:41.129Z,96.68
2022-10-17T07:39:09.581Z,92.68
2022-10-17T07:41:38.457Z,91.43
2022-10-17T07:44:07.456Z,91.85
2022-10-17T07:46:40.555Z,87.65
2022-10-17T07:49:08.036Z,85.85
2022-10-17T07:51:35.801Z,86.10
2022-10-17T07:54:05.876Z,80.78
2022-10-17T07:56:33.466Z,91.50
2022-10-17T07:59:03.827Z,83.55
2022-10-17T08:01:34.258Z,86.47
2022-10-17T08:04:01.710Z,84.80
2022-10-17T08:06:29.125Z,89.35
2022-10-17T08:08:58.015Z,85.60
2022-10-17T08:11:25.511Z,83.75
2022-10-17T08:13:52.983Z,87.85
2022-10-17T08:16:20.466Z,85.07
2022-10-17T08:18:47.968Z,88.53
2022-10-17T08:21:15.465Z,99.68
2022-10-17T08:23:42.876Z,88.57
2022-10-17T08:26:13.388Z,94.57
2022-10-17T08:28:41.288Z,88.57
2022-10-17T08:31:27.346Z,84.85
2022-10-17T08:33:55.160Z,92.57
2022-10-17T08:36:22.651Z,94.10
2022-10-17T08:38:52.758Z,87.35
2022-10-17T08:41:54.363Z,92.55
2022-10-17T08:44:39.786Z,85.22
2022-10-17T08:47:12.549Z,87.97
2022-10-17T08:49:49.029Z,86.65
2022-10-17T08:52:29.186Z,86.53
2022-10-17T08:54:57.037Z,85.05
2022-10-17T08:57:24.399Z,82.50
2022-10-17T08:59:54.271Z,87.45
2022-10-17T09:02:37.863Z,90.05
2022-10-17T09:05:29.790Z,85.60
2022-10-17T09:08:03.059Z,90.93
2022-10-17T09:10:33.556Z,96.10
2022-10-17T09:13:26.929Z,96.95
2022-10-17T09:16:07.637Z,101.35
2022-10-17T09:18:41.765Z,98.30
2022-10-17T09:21:27.567Z,100.88
2022-10-17T09:24:09.464Z,97.20
2022-10-17T09:26:40.480Z,94.82
2022-10-17T09:29:25.433Z,98.82
2022-10-17T09:32:02.694Z,95.28
2022-10-17T09:34:32.516Z,92.05
2022-10-17T09:37:01.981Z,91.85
2022-10-17T09:39:33.231Z,94.85
2022-10-17T09:42:02.038Z,96.80
2022-10-17T09:44:42.721Z,91.32
2022-10-17T09:47:23.857Z,98.68
2022-10-17T09:49:51.723Z,87.88
2022-10-17T09:52:47.897Z,86.72
2022-10-17T09:55:20.349Z,98.75
2022-10-17T09:58:08.272Z,100.10
2022-10-17T10:00:44.122Z,93.63
2022-10-17T10:03:17.623Z,90.82
2022-10-17T10:06:05.398Z,90.68
2022-10-17T10:08:58.702Z,92.95
2022-10-17T10:11:54.182Z,93.85
2022-10-17T10:14:35.203Z,96.20
2022-10-17T10:17:05.492Z,86.97
2022-10-17T10:19:35.988Z,90.57
2022-10-17T10:22:14.806Z,94.90
2022-10-17T10:24:42.310Z,89.13
2022-10-17T10:27:16.086Z,97.40
2022-10-17T10:29:50.550Z,92.22
2022-10-17T10:32:26.200Z,90.55
2022-10-17T10:34:58.576Z,89.28
2022-10-17T10:40:01.726Z,77.57
2022-10-17T10:42:37.623Z,78.53
2022-10-17T10:45:29.196Z,76.20
2022-10-17T10:48:17.515Z,82.68
2022-10-17T10:50:45.520Z,80.38
2022-10-17T10:53:53.456Z,76.78
2022-10-17T10:56:33.198Z,80.80
2022-10-17T10:59:03.158Z,77.78
2022-10-17T11:02:05.158Z,78.07
2022-10-17T11:05:04.719Z,77.87
2022-10-17T11:07:40.661Z,73.70
2022-10-17T11:10:30.777Z,70.82
2022-10-17T11:13:01.729Z,76.97
2022-10-17T11:15:54.692Z,72.05
2022-10-17T11:18:54.396Z,77.18
2022-10-17T11:21:48.358Z,78.90
2022-10-17T11:24:24.482Z,77.55
2022-10-17T11:27:03.674Z,78.53
2022-10-17T11:29:34.035Z,82.75
2022-10-17T11:32:13.978Z,78.90
2022-10-17T11:34:47.849Z,73.82
2022-10-17T11:37:25.468Z,68.90
2022-10-17T11:40:26.817Z,72.10
2022-10-17T11:43:01.833Z,67.95
2022-10-17T11:45:35.125Z,71.20
2022-10-17T11:48:07.847Z,67.78
2022-10-17T11:53:41.824Z,73.35
2022-10-17T11:56:11.689Z,76.25
2022-10-17T11:58:52.356Z,72.38
2022-10-17T12:01:52.632Z,71.13
2022-10-17T12:04:54.754Z,81.28
2022-10-17T12:07:48.705Z,77.28
2022-10-17T12:10:45.300Z,74.78
2022-10-17T12:13:28.073Z,81.20
2022-10-17T12:16:17.817Z,79.78
2022-10-17T12:18:46.348Z,79.88
2022-10-17T12:21:13.935Z,82.15
2022-10-17T12:23:51.202Z,81.07
2022-10-17T12:26:27.131Z,81.18
2022-10-17T12:28:55.174Z,82.53
2022-10-17T12:31:33.413Z,75.82
2022-10-17T12:34:04.137Z,74.72
2022-10-17T12:36:31.538Z,78.60
2022-10-17T12:39:01.710Z,77.63
2022-10-17T12:41:38.474Z,80.03
2022-10-17T12:44:34.938Z,81.50
2022-10-17T12:47:09.677Z,72.93
2022-10-17T12:49:54.350Z,73.85
2022-10-17T12:52:32.249Z,69.00
2022-10-17T12:55:13.790Z,76.57
2022-10-17T12:57:49.304Z,71.95
2022-10-17T13:00:27.182Z,73.60
2022-10-17T13:02:57.297Z,78.80
2022-10-17T13:05:31.533Z,72.25
2022-10-17T13:08:03.471Z,77.05
2022-10-17T13:10:34.890Z,72.00
2022-10-17T13:13:25.428Z,73.03
2022-10-17T13:15:54.856Z,71.35
2022-10-17T13:18:28.808Z,76.70
2022-10-17T13:21:03.972Z,76.78
2022-10-17T13:23:36.817Z,72.72
2022-10-17T13:26:26.026Z,76.35
2022-10-17T13:29:11.241Z,76.75
2022-10-17T13:31:41.355Z,75.43
2022-10-17T13:34:21.122Z,74.85
2022-10-17T13:36:52.037Z,70.95
2022-10-17T13:39:38.386Z,76.03
2022-10-17T13:42:25.680Z,70.72
2022-10-17T13:44:53.382Z,75.70
2022-10-17T13:47:26.974Z,73.35
2022-10-17T13:49:55.644Z,73.43
2022-10-17T13:52:28.493Z,71.22
2022-10-17T13:55:06.828Z,75.43
2022-10-17T13:57:34.476Z,73.60
2022-10-17T14:00:11.385Z,66.90
2022-10-17T14:02:42.517Z,76.82
2022-10-17T14:05:18.251Z,71.63
2022-10-17T14:08:11.210Z,71.97
2022-10-17T14:10:41.373Z,74.32
2022-10-17T14:13:24.663Z,75.95
2022-10-17T14:15:55.739Z,71.47
2022-10-17T14:18:36.196Z,76.90
2022-10-17T14:24:12.553Z,76.18
2022-10-17T14:26:54.707Z,73.05
2022-10-17T14:29:28.680Z,69.45
2022-10-17T14:32:05.602Z,75.35
2022-10-17T14:34:36.667Z,70.18
2022-10-17T14:37:10.779Z,77.55
2022-10-17T14:39:39.104Z,67.50
2022-10-17T14:42:06.776Z,73.07
2022-10-17T14:44:35.911Z,69.35
2022-10-17T14:47:30.717Z,76.63
2022-10-17T14:50:21.154Z,76.63
2022-10-17T14:53:00.859Z,71.93
2022-10-17T14:55:31.199Z,67.10
2022-10-17T14:57:58.969Z,70.82
2022-10-17T15:00:26.714Z,68.72
2022-10-17T15:02:55.663Z,73.35
2022-10-17T15:05:23.481Z,68.40
2022-10-17T15:07:51.211Z,71.63
2022-10-17T15:10:37.708Z,71.22
2022-10-17T15:13:26.620Z,67.60
2022-10-17T15:15:52.660Z,66.82
2022-10-17T15:18:20.082Z,72.72
2022-10-17T15:20:49.604Z,69.18
2022-10-17T15:23:23.159Z,67.25
2022-10-17T15:25:50.810Z,70.28
2022-10-17T15:28:18.292Z,70.00
2022-10-17T15:30:45.853Z,67.63
2022-10-17T15:33:13.226Z,70.35
2022-10-17T15:35:42.639Z,63.00
2022-10-17T15:38:17.145Z,57.28
2022-10-17T15:40:45.990Z,62.85
2022-10-17T15:43:16.164Z,63.42
2022-10-17T15:45:47.219Z,63.05
2022-10-17T15:48:29.835Z,60.72
2022-10-17T15:50:57.617Z,60.30
2022-10-17T15:53:25.127Z,55.35
2022-10-17T15:55:52.606Z,53.00
2022-10-17T15:58:20.259Z,58.20
2022-10-17T16:00:48.261Z,55.42
2022-10-17T16:03:15.765Z,53.92
2022-10-17T16:05:43.254Z,56.17
2022-10-17T16:08:10.648Z,51.85
2022-10-17T16:10:40.502Z,49.25
2022-10-17T16:13:23.900Z,51.70
2022-10-17T16:15:51.454Z,55.45
2022-10-17T16:18:20.096Z,54.97
2022-10-17T16:20:47.664Z,51.80
2022-10-17T16:23:15.198Z,55.03
2022-10-17T16:25:42.962Z,50.33
2022-10-17T16:28:11.953Z,51.05
2022-10-17T16:30:46.421Z,54.85
2022-10-17T16:33:14.018Z,55.70
2022-10-17T16:35:41.498Z,53.42
2022-10-17T16:38:08.924Z,56.92
2022-10-17T16:40:39.263Z,51.53
2022-10-17T16:43:07.512Z,54.03
2022-10-17T16:45:36.127Z,51.28
2022-10-17T16:48:03.621Z,63.72
2022-10-17T16:50:35.388Z,59.35
2022-10-17T16:53:04.162Z,56.95
2022-10-17T16:55:31.592Z,52.40
2022-10-17T16:58:00.010Z,48.92
2022-10-17T17:00:27.430Z,48.65
2022-10-17T17:02:54.852Z,48.88
2022-10-17T17:05:22.300Z,51.47
2022-10-17T17:07:49.765Z,52.65
2022-10-17T17:10:17.298Z,58.47
2022-10-17T17:12:44.719Z,57.63
2022-10-17T17:15:12.202Z,64.30
2022-10-17T17:17:55.802Z,57.67
2022-10-17T17:20:23.664Z,61.58
2022-10-17T17:22:52.296Z,58.95
2022-10-17T17:25:19.792Z,56.95
2022-10-17T17:27:47.302Z,51.80
2022-10-17T17:30:14.961Z,60.08
2022-10-17T17:32:42.538Z,59.33
2022-10-17T17:35:10.224Z,55.10
2022-10-17T17:37:37.694Z,62.67
2022-10-17T17:40:06.207Z,53.80
2022-10-17T17:42:33.630Z,58.58
2022-10-17T17:45:01.091Z,60.40
2022-10-17T17:47:29.734Z,58.90
2022-10-17T17:49:57.501Z,57.10
2022-10-17T17:52:25.220Z,65.68
2022-10-17T17:54:52.651Z,54.20
2022-10-17T17:57:20.122Z,63.22
2022-10-17T17:59:49.746Z,62.20
2022-10-17T18:02:17.227Z,69.63
2022-10-17T18:04:44.709Z,57.75
2022-10-17T18:07:12.243Z,51.28
2022-10-17T18:09:39.692Z,51.72
2022-10-17T18:12:07.182Z,63.13
2022-10-17T18:14:34.665Z,58.17
2022-10-17T18:17:02.075Z,61.28
2022-10-17T18:19:29.618Z,62.47
2022-10-17T18:21:57.122Z,65.28
2022-10-17T18:24:24.694Z,64.90
2022-10-17T18:26:56.072Z,61.85
2022-10-17T18:29:23.517Z,70.80
2022-10-17T18:31:51.022Z,61.92
2022-10-17T18:34:18.647Z,67.32
2022-10-17T18:36:46.163Z,63.33
2022-10-17T18:39:13.641Z,63.80
2022-10-17T18:41:41.187Z,62.50
2022-10-17T18:44:09.807Z,61.20
2022-10-17T18:46:41.024Z,67.45
2022-10-17T18:49:14.826Z,60.87
2022-10-17T18:51:42.915Z,64.50
2022-10-17T18:54:20.379Z,68.07
2022-10-17T18:56:51.054Z,61.13
2022-10-17T18:59:19.975Z,67.03
2022-10-17T19:01:47.705Z,71.38
2022-10-17T19:04:15.459Z,68.38
2022-10-17T19:06:43.604Z,62.78
2022-10-17T19:09:12.734Z,70.70
2022-10-17T19:11:40.483Z,81.07
2022-10-17T19:14:13.074Z,89.38
2022-10-17T19:16:43.914Z,85.80
2022-10-17T19:19:14.421Z,79.07
2022-10-17T19:21:42.316Z,82.07
2022-10-17T19:24:14.528Z,89.47
2022-10-17T19:26:42.931Z,80.50
2022-10-17T19:29:13.931Z,68.38
2022-10-17T19:31:41.422Z,57.53
2022-10-17T19:34:10.649Z,66.45
2022-10-17T19:36:38.283Z,63.00
2022-10-17T19:39:08.788Z,59.28
2022-10-17T19:41:36.624Z,87.03
2022-10-17T19:44:04.205Z,92.55
2022-10-17T19:46:32.235Z,86.50
2022-10-17T19:49:00.426Z,67.78
2022-10-17T19:51:29.035Z,77.35
2022-10-17T19:54:00.375Z,67.85
2022-10-17T19:56:29.909Z,74.93
2022-10-17T19:58:57.893Z,76.82
2022-10-17T20:01:27.964Z,72.93
2022-10-17T20:03:56.136Z,73.90
2022-10-17T20:06:24.123Z,86.28
2022-10-17T20:08:51.795Z,86.95
2022-10-17T20:11:24.551Z,88.97
2022-10-17T20:13:52.845Z,69.18
2022-10-17T20:16:25.931Z,66.95
2022-10-17T20:18:55.634Z,65.85
2022-10-17T20:21:31.462Z,80.70
2022-10-17T20:24:00.004Z,92.65
2022-10-17T20:26:43.883Z,85.68
2022-10-17T20:29:15.373Z,77.32
2022-10-17T20:31:44.892Z,77.88
2022-10-17T20:34:14.269Z,66.03
2022-10-17T20:36:41.931Z,73.35
2022-10-17T20:39:11.671Z,77.55
2022-10-17T20:41:39.534Z,78.05
2022-10-17T20:44:07.427Z,70.28
2022-10-17T20:46:37.828Z,78.07
2022-10-17T20:51:36.071Z,80.07
2022-10-17T20:54:04.414Z,75.15
2022-10-17T20:56:33.688Z,75.63
2022-10-17T20:59:06.902Z,76.68
2022-10-17T21:01:35.942Z,78.97
2022-10-17T21:04:26.901Z,84.07
2022-10-17T21:06:52.245Z,85.25
2022-10-17T21:09:20.327Z,93.78
2022-10-17T21:11:51.093Z,83.28
2022-10-17T21:14:18.995Z,74.32
2022-10-17T21:16:46.572Z,78.28
2022-10-17T21:19:14.775Z,84.38
2022-10-17T21:21:44.808Z,75.22
2022-10-17T21:24:14.633Z,76.38
2022-10-17T21:26:43.386Z,81.93
2022-10-17T21:29:12.663Z,81.07
2022-10-17T21:31:42.660Z,78.38
2022-10-17T21:34:15.383Z,86.50
2022-10-17T21:36:43.415Z,104.38
2022-10-17T21:39:12.598Z,81.45
2022-10-17T21:41:40.769Z,78.10
2022-10-17T21:44:16.248Z,86.35
2022-10-17T21:46:44.308Z,99.32
2022-10-17T21:49:13.556Z,102.38
2022-10-17T21:51:41.146Z,85.45
2022-10-17T21:54:08.756Z,81.63
2022-10-17T21:56:36.678Z,88.40
2022-10-17T21:59:05.108Z,87.18
2022-10-17T22:01:35.265Z,85.30
2022-10-17T22:04:04.973Z,88.68
2022-10-17T22:06:42.973Z,89.88
2022-10-17T22:09:22.440Z,81.13
2022-10-17T22:11:53.575Z,81.07
2022-10-17T22:14:23.731Z,75.82
2022-10-17T22:16:51.412Z,71.07
2022-10-17T22:19:21.745Z,78.47
2022-10-17T22:21:49.720Z,73.13
2022-10-17T22:24:19.234Z,74.03
2022-10-17T22:26:47.329Z,75.22
2022-10-17T22:29:15.412Z,72.47
2022-10-17T22:31:43.118Z,78.57
2022-10-17T22:34:13.924Z,76.35
2022-10-17T22:36:42.265Z,76.57
2022-10-17T22:39:09.943Z,70.03
2022-10-17T22:41:37.341Z,71.10
2022-10-17T22:44:05.416Z,75.63
2022-10-17T22:46:32.954Z,79.47
2022-10-17T22:49:00.441Z,71.35
2022-10-17T22:51:27.905Z,72.15
2022-10-17T22:53:55.328Z,74.32
2022-10-17T22:56:23.692Z,70.82
2022-10-17T22:58:51.425Z,69.47
2022-10-17T23:01:24.189Z,75.13
2022-10-17T23:03:52.650Z,70.43
2022-10-17T23:06:20.306Z,68.75
2022-10-17T23:08:48.140Z,74.90
2022-10-17T23:11:15.667Z,71.75
2022-10-17T23:13:43.119Z,68.13
2022-10-17T23:16:10.901Z,74.93
2022-10-17T23:18:39.198Z,73.25
2022-10-17T23:21:07.632Z,68.25
2022-10-17T23:23:35.731Z,72.80
2022-10-17T23:26:05.712Z,71.15
2022-10-17T23:28:35.629Z,77.97
2022-10-17T23:31:10.766Z,76.20
2022-10-17T23:33:41.137Z,77.25
2022-10-17T23:36:10.712Z,72.57
2022-10-17T23:38:39.620Z,77.63
2022-10-17T23:41:07.724Z,71.95
2022-10-17T23:43:35.457Z,73.60
2022-10-17T23:46:04.779Z,73.35
2022-10-17T23:48:32.647Z,71.97
2022-10-17T23:51:00.208Z,77.05
2022-10-17T23:53:27.652Z,74.68
2022-10-17T23:55:55.155Z,76.45
2022-10-17T23:58:22.650Z,72.05
